Atkinsonville, Indiana
Current Conditions -  °F | °C
As of 9:55 AM on Monday 24 Nov 2014 (Local Time) from K4I7 Reporting Station
Haze Haze  
Wind Chill: 30°   Ceiling: 1400
Heat Index: 39°   Visibility: 5mi
Dew Point: 36°   Wind: 18mph
Humidity: 87%   Direction: 250°WSW
Pressure: 29.41"   Gusts: 29mph
Location:  39.4501°N, 86.975°W
Report Text: K4I7 241455Z AUTO 25016G25KT 5SM BR BKN014 OVC019 04/02 A2941 RMK AO2
Loading
Personal Weather Stations






























Interactive Weather Map New forecast layout! Learn more

10-Day Weather Forecast

Advertisements
Track Severe Weather on mobile